createdAt,value
2023-05-22T10:08:31.471Z,21.43
2023-05-22T10:10:32.820Z,21.41
2023-05-22T10:12:34.266Z,21.43
2023-05-22T10:14:36.413Z,21.43
2023-05-22T10:16:38.474Z,21.45
2023-05-22T10:18:39.955Z,21.45
2023-05-22T10:20:41.446Z,21.45
2023-05-22T10:22:42.965Z,21.44
2023-05-22T10:24:44.328Z,21.45
2023-05-22T10:26:45.833Z,21.42
2023-05-22T10:28:47.354Z,21.43
2023-05-22T10:30:48.762Z,21.45
2023-05-22T10:32:50.119Z,21.44
2023-05-22T10:34:51.562Z,21.40
2023-05-22T10:36:54.442Z,21.39
2023-05-22T10:38:57.816Z,21.38
2023-05-22T10:40:59.186Z,21.35
2023-05-22T10:43:01.131Z,21.33
2023-05-22T10:45:02.481Z,21.32
2023-05-22T10:47:03.938Z,21.30
2023-05-22T10:49:05.265Z,21.29
2023-05-22T10:51:06.672Z,21.29
2023-05-22T10:53:08.010Z,21.29
2023-05-22T10:55:09.478Z,21.32
2023-05-22T10:57:11.641Z,21.35
2023-05-22T10:59:13.034Z,21.35
2023-05-22T11:01:14.920Z,21.34
2023-05-22T11:03:18.319Z,21.33
2023-05-22T11:05:21.653Z,21.31
2023-05-22T11:07:23.083Z,21.30
2023-05-22T11:09:24.495Z,21.29
2023-05-22T11:11:26.228Z,21.31
2023-05-22T11:13:29.303Z,21.33
2023-05-22T11:15:31.042Z,21.37
2023-05-22T11:17:32.696Z,21.36
2023-05-22T11:19:34.119Z,21.34
2023-05-22T11:21:35.517Z,21.32
2023-05-22T11:23:36.890Z,21.30
2023-05-22T11:25:38.554Z,21.27
2023-05-22T11:27:39.903Z,21.24
2023-05-22T11:29:43.448Z,21.22
2023-05-22T11:31:44.787Z,21.21
2023-05-22T11:33:46.204Z,21.20
2023-05-22T11:35:47.662Z,21.20
2023-05-22T11:37:49.013Z,21.20
2023-05-22T11:39:51.196Z,21.20
2023-05-22T11:41:52.570Z,21.19
2023-05-22T11:43:54.564Z,21.19
2023-05-22T11:45:55.927Z,21.19
2023-05-22T11:47:57.335Z,21.18
2023-05-22T11:49:59.881Z,21.16
2023-05-22T11:52:01.228Z,21.19
2023-05-22T11:54:02.574Z,21.19
2023-05-22T11:56:04.906Z,21.18
2023-05-22T11:58:06.237Z,21.18
2023-05-22T12:00:08.566Z,21.18
2023-05-22T12:02:10.402Z,21.18
2023-05-22T12:04:11.915Z,21.18
2023-05-22T12:06:15.793Z,21.20
2023-05-22T12:08:18.582Z,21.19
2023-05-22T12:10:19.914Z,21.18
2023-05-22T12:12:22.462Z,21.25
2023-05-22T12:14:24.083Z,21.51
2023-05-22T12:16:25.701Z,21.71
2023-05-22T12:18:27.064Z,21.65
2023-05-22T12:20:28.430Z,21.54
2023-05-22T12:22:29.844Z,21.52
2023-05-22T12:24:31.312Z,21.53
2023-05-22T12:26:32.744Z,21.60
2023-05-22T12:28:34.108Z,21.59
2023-05-22T12:30:35.432Z,21.53
2023-05-22T12:32:36.802Z,21.54
2023-05-22T12:34:43.859Z,21.62
2023-05-22T12:36:45.374Z,21.64
2023-05-22T12:38:46.769Z,21.70
2023-05-22T12:40:48.323Z,21.73
2023-05-22T12:42:49.724Z,21.77
2023-05-22T12:44:52.126Z,21.79
2023-05-22T12:46:53.671Z,21.78
2023-05-22T12:48:55.423Z,21.77
2023-05-22T12:50:56.788Z,21.72
2023-05-22T12:52:58.110Z,21.70
2023-05-22T12:54:59.556Z,21.68
2023-05-22T12:57:01.061Z,21.67
2023-05-22T12:59:02.388Z,21.69
2023-05-22T13:01:03.993Z,21.88
2023-05-22T13:03:05.414Z,21.82
2023-05-22T13:05:06.814Z,21.69
2023-05-22T13:07:08.228Z,21.65
2023-05-22T13:09:09.643Z,21.65
2023-05-22T13:11:11.116Z,21.65
2023-05-22T13:13:12.519Z,21.66
2023-05-22T13:15:15.349Z,21.66
2023-05-22T13:17:16.840Z,21.66
2023-05-22T13:19:18.292Z,21.64
2023-05-22T13:21:19.719Z,21.59
2023-05-22T13:23:21.055Z,21.58
2023-05-22T13:25:22.387Z,21.58
2023-05-22T13:27:23.740Z,21.53
2023-05-22T13:29:25.065Z,21.52
2023-05-22T13:31:26.395Z,21.54
2023-05-22T13:33:27.922Z,21.55
2023-05-22T13:35:29.304Z,21.57
2023-05-22T13:37:30.707Z,21.57
2023-05-22T13:39:32.048Z,21.58
2023-05-22T13:41:33.379Z,21.52
2023-05-22T13:43:34.760Z,21.49
2023-05-22T13:45:36.122Z,21.47
2023-05-22T13:47:38.558Z,21.46
2023-05-22T13:49:40.018Z,21.45
2023-05-22T13:51:41.439Z,21.42
2023-05-22T13:53:42.874Z,21.38
2023-05-22T13:55:44.268Z,21.37
2023-05-22T13:57:45.843Z,21.32
2023-05-22T13:59:47.267Z,21.30
2023-05-22T14:01:48.591Z,21.28
2023-05-22T14:03:49.921Z,21.28
2023-05-22T14:05:51.434Z,21.47
2023-05-22T14:07:52.844Z,21.71
2023-05-22T14:09:54.176Z,21.80
2023-05-22T14:11:57.699Z,21.85
2023-05-22T14:13:59.028Z,21.89
2023-05-22T14:16:00.387Z,21.92
2023-05-22T14:18:01.744Z,21.93
2023-05-22T14:20:03.983Z,21.96
2023-05-22T14:22:05.348Z,22.03
2023-05-22T14:24:06.697Z,22.04
2023-05-22T14:26:08.022Z,22.04
2023-05-22T14:28:09.504Z,22.07
2023-05-22T14:30:13.535Z,22.10
2023-05-22T14:32:14.937Z,22.04
2023-05-22T14:34:16.419Z,21.93
2023-05-22T14:36:17.932Z,21.70
2023-05-22T14:38:19.332Z,21.54
2023-05-22T14:40:20.669Z,21.37
2023-05-22T14:42:22.001Z,21.38
2023-05-22T14:44:23.390Z,21.37
2023-05-22T14:46:24.747Z,21.34
2023-05-22T14:48:26.600Z,21.33
2023-05-22T14:50:28.290Z,21.33
2023-05-22T14:52:29.626Z,21.34
2023-05-22T14:54:30.944Z,21.35
2023-05-22T14:56:32.284Z,21.35
2023-05-22T14:58:33.630Z,21.34
2023-05-22T15:00:34.963Z,21.29
2023-05-22T15:02:36.322Z,21.26
2023-05-22T15:04:37.839Z,21.22
2023-05-22T15:06:42.263Z,21.21
2023-05-22T15:08:43.729Z,21.18
2023-05-22T15:10:45.240Z,21.18
2023-05-22T15:12:46.564Z,21.17
2023-05-22T15:14:47.883Z,21.17
2023-05-22T15:16:50.337Z,21.15
2023-05-22T15:18:51.934Z,21.12
2023-05-22T15:20:53.538Z,21.10
2023-05-22T15:22:54.943Z,21.08
2023-05-22T15:24:56.264Z,21.06
2023-05-22T15:27:00.807Z,21.00
2023-05-22T15:29:02.251Z,20.98
2023-05-22T15:31:03.589Z,20.96
2023-05-22T15:33:05.055Z,20.93
2023-05-22T15:35:06.505Z,20.92
2023-05-22T15:37:07.826Z,20.91
2023-05-22T15:39:09.215Z,20.89
2023-05-22T15:41:10.592Z,20.88
2023-05-22T15:43:12.000Z,20.87
2023-05-22T15:45:13.373Z,20.86
2023-05-22T15:47:14.942Z,20.85
2023-05-22T15:49:16.270Z,20.85
2023-05-22T15:51:17.630Z,20.83
2023-05-22T15:53:19.050Z,20.81
2023-05-22T15:55:20.441Z,20.80
2023-05-22T15:57:24.684Z,20.79
2023-05-22T15:59:26.007Z,20.76
2023-05-22T16:01:29.455Z,20.75
2023-05-22T16:03:31.000Z,20.74
2023-05-22T16:05:34.800Z,20.73
2023-05-22T16:07:39.001Z,20.72
2023-05-22T16:09:41.780Z,20.69
2023-05-22T16:11:43.436Z,20.70
2023-05-22T16:13:45.188Z,20.71
2023-05-22T16:15:46.624Z,20.71
2023-05-22T16:17:48.072Z,20.71
2023-05-22T16:19:51.144Z,20.73
2023-05-22T16:21:52.505Z,20.72
2023-05-22T16:23:53.867Z,20.73
2023-05-22T16:25:55.270Z,20.73
2023-05-22T16:27:56.648Z,20.74
2023-05-22T16:29:58.010Z,20.73
2023-05-22T16:31:59.571Z,20.73
2023-05-22T16:34:01.045Z,20.73
2023-05-22T16:36:02.376Z,20.73
2023-05-22T16:38:03.727Z,20.72
2023-05-22T16:40:05.867Z,20.71
2023-05-22T16:42:10.215Z,20.68
2023-05-22T16:44:11.545Z,20.66
2023-05-22T16:46:12.911Z,20.65
2023-05-22T16:48:14.537Z,20.63
2023-05-22T16:50:22.067Z,20.63
2023-05-22T16:52:25.545Z,20.62
2023-05-22T16:54:26.960Z,20.60
2023-05-22T16:56:32.747Z,20.58
2023-05-22T16:58:34.231Z,20.56
2023-05-22T17:00:35.630Z,20.53
2023-05-22T17:02:37.843Z,20.52
2023-05-22T17:04:40.190Z,20.51
2023-05-22T17:06:41.515Z,20.48
2023-05-22T17:08:42.886Z,20.47
2023-05-22T17:10:44.304Z,20.45
2023-05-22T17:12:45.651Z,20.43
2023-05-22T17:14:46.993Z,20.42
2023-05-22T17:16:48.989Z,20.41
2023-05-22T17:18:51.831Z,19.49
2023-05-22T17:20:55.729Z,20.58
2023-05-22T17:22:57.077Z,21.50
2023-05-22T17:24:58.395Z,22.18
2023-05-22T17:27:00.128Z,22.36
2023-05-22T17:29:07.587Z,22.54
2023-05-22T17:31:09.122Z,22.42
2023-05-22T17:33:10.854Z,22.19
2023-05-22T17:35:15.243Z,22.11
2023-05-22T17:37:16.562Z,22.45
2023-05-22T17:39:17.895Z,22.41
2023-05-22T17:41:19.261Z,22.24
2023-05-22T17:43:20.718Z,21.70
2023-05-22T17:45:22.046Z,22.19
2023-05-22T17:47:23.429Z,22.26
2023-05-22T17:49:24.832Z,22.34
2023-05-22T17:51:29.089Z,22.38
2023-05-22T17:53:34.591Z,22.44
2023-05-22T17:55:37.047Z,22.49
2023-05-22T17:57:38.619Z,22.64
2023-05-22T17:59:40.554Z,22.61
2023-05-22T18:01:42.039Z,22.71
2023-05-22T18:03:43.516Z,23.15
2023-05-22T18:05:44.919Z,22.95
2023-05-22T18:07:46.319Z,22.74
2023-05-22T18:09:47.707Z,22.57
2023-05-22T18:11:49.023Z,21.86
2023-05-22T18:13:50.355Z,21.43
2023-05-22T18:15:51.849Z,22.09
2023-05-22T18:17:53.389Z,21.08
2023-05-22T18:19:54.724Z,22.50
2023-05-22T18:21:56.351Z,22.42
2023-05-22T18:24:06.637Z,22.72
2023-05-22T18:26:12.423Z,22.82
2023-05-22T18:28:13.835Z,22.70
2023-05-22T18:30:15.165Z,22.58
2023-05-22T18:32:16.557Z,22.69
2023-05-22T18:34:17.979Z,22.51
2023-05-22T18:36:19.299Z,22.08
2023-05-22T18:38:22.129Z,21.81
2023-05-22T18:40:26.294Z,21.66
2023-05-22T18:42:27.623Z,21.59
2023-05-22T18:44:28.952Z,21.62
2023-05-22T18:46:30.403Z,22.02
2023-05-22T18:48:33.209Z,22.15
2023-05-22T18:50:34.681Z,22.74
2023-05-22T18:52:42.275Z,22.95
2023-05-22T18:54:43.765Z,23.10
2023-05-22T18:56:45.336Z,23.26
2023-05-22T18:58:46.749Z,22.93
2023-05-22T19:00:48.210Z,23.19
2023-05-22T19:02:52.554Z,22.84
2023-05-22T19:04:55.636Z,22.73
2023-05-22T19:06:57.681Z,22.34
2023-05-22T19:09:01.837Z,22.00
2023-05-22T19:11:03.205Z,21.76
2023-05-22T19:13:10.284Z,21.68
2023-05-22T19:15:14.574Z,21.55
2023-05-22T19:17:16.119Z,21.63
2023-05-22T19:19:17.672Z,22.20
2023-05-22T19:21:19.356Z,22.38
2023-05-22T19:23:20.679Z,22.57
2023-05-22T19:25:22.085Z,22.64
2023-05-22T19:27:26.294Z,22.69
2023-05-22T19:29:27.615Z,22.74
2023-05-22T19:31:37.784Z,22.80
2023-05-22T19:33:39.389Z,22.82
2023-05-22T19:35:44.378Z,22.81
2023-05-22T19:37:46.178Z,22.88
2023-05-22T19:39:50.482Z,22.90
2023-05-22T19:41:54.986Z,22.90
2023-05-22T19:43:56.312Z,22.89
2023-05-22T19:46:05.370Z,22.90
2023-05-22T19:48:08.473Z,22.92
2023-05-22T19:50:09.858Z,22.72
2023-05-22T19:52:11.258Z,22.34
2023-05-22T19:54:12.703Z,22.07
2023-05-22T19:56:14.038Z,21.85
2023-05-22T19:58:15.411Z,22.11
2023-05-22T20:00:16.878Z,22.51
2023-05-22T20:02:18.319Z,22.57
2023-05-22T20:04:19.707Z,22.61
2023-05-22T20:06:21.390Z,22.66
2023-05-22T20:08:26.198Z,22.70
2023-05-22T20:10:27.574Z,22.71
2023-05-22T20:12:28.984Z,22.73
2023-05-22T20:14:30.399Z,22.86
2023-05-22T20:16:31.862Z,22.76
2023-05-22T20:18:33.270Z,22.72
2023-05-22T20:20:35.225Z,22.67
2023-05-22T20:22:39.319Z,22.66
2023-05-22T20:24:40.728Z,22.65
2023-05-22T20:26:42.132Z,22.64
2023-05-22T20:28:43.451Z,22.64
2023-05-22T20:30:44.860Z,22.66
2023-05-22T20:32:47.085Z,22.68
2023-05-22T20:34:48.521Z,22.70
2023-05-22T20:36:49.853Z,22.70
2023-05-22T20:38:51.216Z,22.72
2023-05-22T20:40:52.572Z,22.73
2023-05-22T20:42:53.909Z,22.76
2023-05-22T20:44:55.366Z,22.75
2023-05-22T20:46:56.744Z,22.76
2023-05-22T20:48:58.415Z,22.57
2023-05-22T20:50:59.852Z,22.20
2023-05-22T20:53:01.179Z,22.06
2023-05-22T20:55:02.569Z,22.41
2023-05-22T20:57:03.930Z,22.49
2023-05-22T20:59:05.330Z,22.58
2023-05-22T21:01:06.716Z,22.89
2023-05-22T21:03:08.255Z,22.80
2023-05-22T21:05:09.699Z,22.88
2023-05-22T21:07:11.188Z,22.78
2023-05-22T21:09:12.517Z,22.75
2023-05-22T21:11:13.869Z,22.77
2023-05-22T21:13:15.457Z,22.74
2023-05-22T21:15:17.100Z,22.75
2023-05-22T21:17:18.515Z,22.81
2023-05-22T21:19:19.980Z,22.83
2023-05-22T21:21:21.510Z,22.86
2023-05-22T21:23:24.644Z,22.85
2023-05-22T21:25:26.172Z,22.85
2023-05-22T21:27:27.495Z,22.94
2023-05-22T21:29:28.826Z,22.95
2023-05-22T21:31:30.300Z,22.88
2023-05-22T21:33:31.651Z,22.79
2023-05-22T21:35:32.991Z,22.81
2023-05-22T21:37:34.311Z,22.78
2023-05-22T21:39:35.686Z,22.93
2023-05-22T21:41:37.016Z,22.80
2023-05-22T21:43:38.404Z,22.78
2023-05-22T21:45:39.755Z,22.74
2023-05-22T21:47:41.294Z,22.72
2023-05-22T21:49:42.743Z,22.72
2023-05-22T21:51:44.144Z,22.50
2023-05-22T21:53:45.597Z,22.17
2023-05-22T21:55:46.987Z,22.08
2023-05-22T21:57:48.392Z,22.07
2023-05-22T21:59:51.305Z,21.95
2023-05-22T22:01:52.747Z,21.87
2023-05-22T22:03:54.334Z,21.80
2023-05-22T22:05:55.873Z,21.74
2023-05-22T22:07:57.208Z,21.71
2023-05-22T22:09:58.605Z,21.68
2023-05-22T22:12:00.043Z,21.66
2023-05-22T22:14:02.251Z,21.66
2023-05-22T22:16:03.810Z,21.65
2023-05-22T22:18:05.367Z,21.65
2023-05-22T22:20:07.189Z,21.64
2023-05-22T22:22:08.559Z,21.62
2023-05-22T22:24:09.883Z,21.59
2023-05-22T22:26:12.173Z,21.60
2023-05-22T22:28:13.525Z,21.55
2023-05-22T22:30:14.854Z,21.53
2023-05-22T22:32:16.289Z,21.50
2023-05-22T22:34:17.830Z,21.49
2023-05-22T22:36:19.184Z,21.48
2023-05-22T22:38:20.527Z,21.48
2023-05-22T22:40:21.913Z,21.49
2023-05-22T22:42:23.271Z,21.49
2023-05-22T22:44:24.592Z,21.46
2023-05-22T22:46:26.475Z,21.45
2023-05-22T22:48:27.805Z,21.44
2023-05-22T22:50:29.767Z,21.41
2023-05-22T22:52:31.176Z,21.40
2023-05-22T22:54:32.605Z,21.40
2023-05-22T22:56:33.985Z,21.38
2023-05-22T22:58:36.493Z,21.37
2023-05-22T23:00:37.833Z,21.37
2023-05-22T23:02:39.188Z,21.34
2023-05-22T23:04:40.607Z,21.35
2023-05-22T23:06:42.661Z,21.38
2023-05-22T23:08:44.062Z,21.40
2023-05-22T23:10:45.639Z,21.38
2023-05-22T23:12:46.964Z,21.41
2023-05-22T23:14:50.462Z,21.41
2023-05-22T23:16:51.866Z,21.40
2023-05-22T23:18:53.323Z,21.39
2023-05-22T23:20:54.716Z,21.37
2023-05-22T23:22:56.080Z,21.37
2023-05-22T23:24:57.403Z,21.38
2023-05-22T23:26:58.789Z,21.40
2023-05-22T23:29:00.165Z,21.39
2023-05-22T23:31:01.506Z,21.40
2023-05-22T23:33:02.984Z,21.39
2023-05-22T23:35:04.344Z,21.38
2023-05-22T23:37:05.760Z,21.37
2023-05-22T23:39:07.214Z,21.37
2023-05-22T23:41:08.545Z,21.36
2023-05-22T23:43:09.864Z,21.34
2023-05-22T23:45:11.190Z,21.34
2023-05-22T23:47:12.525Z,21.34
2023-05-22T23:49:13.865Z,21.33
2023-05-22T23:51:15.282Z,21.34
2023-05-22T23:53:16.610Z,21.11
2023-05-22T23:55:17.939Z,21.17
2023-05-22T23:57:19.264Z,21.20
2023-05-22T23:59:20.664Z,21.23
